North Elizabeth, New Jersey
Current Conditions -  °F | °C
As of 1:01 PM on Monday 22 Dec 2014 (Local Time) from KEWR Reporting Station
Overcast Overcast  
Wind Chill: 35°   Ceiling: 1100
Heat Index: 41°   Visibility: 9mi
Dew Point: 36°   Wind: 9mph
Humidity: 81%   Direction: 10°N
Pressure: 30.25"   Gusts: NA
Location:  40.6752°N, 74.2247°W
Report Text: KEWR 221801Z 01008KT 9SM SCT009 BKN011 OVC020 05/02 A3025 RMK AO2
Loading
Personal Weather Stations






























Interactive Weather Map New forecast layout! Learn more

10-Day Weather Forecast

Advertisements
Track Severe Weather on mobile